Medicine Hat Airport, Alberta

Past 24 Hour Conditions

This table is a summary of hourly weather conditions for the past 24 hours. This summary includes the following parameters: temperature, humidity, dew point, wind speed and direction, air pressure, visibility and/or wind chill and humidex.
Date / Time
(MDT)
Conditions Temp (°F) Humidity (%) Dew Point (°F) Wind (mph) Pressure (inches) Vis (mi) Humidex
17 September 2014
3:00 Clear 48 86 44 calm 29.9 10 *
2:00 Clear 49 87 46 NNE 3 29.9 8 *
1:00 Clear 51 85 46 WSW 2 29.9 10 *
00:00 Clear 52 82 47 ENE 5 29.9 10 *
16 September 2014
23:00 Clear 55 76 47 ENE 5 29.9 10 *
22:00 Clear 60 60 46 E 3 29.9 10 *
21:00 Clear 64 55 48 ESE 5 29.9 15 *
20:00 Mainly Clear 67 49 48 E 7 29.9 30 *
19:00 Mainly Sunny 74 35 45 E 7 29.9 30 *
18:00 Mainly Sunny 76 32 45 ENE 5 29.9 30 76
17:00 Mainly Sunny 79   27 43 ENE 4 29.9 30 *
16:00 Mainly Sunny 79   25 41 N 2 29.9 30 *
15:00 Mainly Sunny 77 30 44 ENE 3 29.9 30 *
14:00 Mainly Sunny 76 31 44 SE 3 29.9 30 *
13:00 Mainly Sunny 74 32 43 calm 29.9 30 *
12:00 Mainly Sunny 72 41 47 W 5 29.9 30 *
11:00 Mainly Sunny 68 50 49 WSW 6 29.9 30 *
10:00 Mainly Sunny 59 69 49 SSW 4 30.0 30 *
9:00 Mainly Sunny 50 81 45 S 3 30.0 30 *
8:00 Mainly Sunny 44 91 42 S 4 30.0 30 *
7:00 Mainly Sunny 41   95 39 S 4 30.0 30 *
6:00 Clear 43 92 41 SE 5 30.0 10 *
5:00 Clear 42 93 41 S 6 30.0 10 *
4:00 Clear 44 89 41 SE 2 30.0 10 *
3:00 Clear 48 81 42 SSE 3 29.9 10 *
N/A
Not available
 ↑ 
Highest temperature
 ↓ 
Lowest temperature
*
Value not significant.

If you require additional historical weather information, please visit Climate Data Online.